sensor_id;sensor_type;location;lat;lon;timestamp;pressure;altitude;pressure_sealevel;temperature;humidity
6615;BME280;3343;42.896;23.912;2023-03-14T00:01:10;74138.13;;;-145.80;44.42
6615;BME280;3343;42.896;23.912;2023-03-14T00:03:39;74164.22;;;-145.80;44.77
6615;BME280;3343;42.896;23.912;2023-03-14T00:06:07;74280.56;;;-145.80;47.55
6615;BME280;3343;42.896;23.912;2023-03-14T00:08:35;74294.63;;;-145.80;48.16
6615;BME280;3343;42.896;23.912;2023-03-14T00:11:06;74310.66;;;-145.80;48.46
6615;BME280;3343;42.896;23.912;2023-03-14T00:13:34;74328.72;;;-145.80;47.22
6615;BME280;3343;42.896;23.912;2023-03-14T00:16:04;74256.50;;;-145.80;46.17
6615;BME280;3343;42.896;23.912;2023-03-14T00:18:32;74232.41;;;-145.80;46.16
6615;BME280;3343;42.896;23.912;2023-03-14T00:21:02;74208.34;;;-145.80;45.69
6615;BME280;3343;42.896;23.912;2023-03-14T00:23:30;74218.38;;;-145.80;45.54
6615;BME280;3343;42.896;23.912;2023-03-14T00:25:59;74182.25;;;-145.80;44.74
6615;BME280;3343;42.896;23.912;2023-03-14T00:28:26;74188.28;;;-145.80;44.59
6615;BME280;3343;42.896;23.912;2023-03-14T00:30:53;74172.22;;;-145.80;44.48
6615;BME280;3343;42.896;23.912;2023-03-14T00:33:20;74174.25;;;-145.80;43.96
6615;BME280;3343;42.896;23.912;2023-03-14T00:35:52;74216.38;;;-145.80;45.13
6615;BME280;3343;42.896;23.912;2023-03-14T00:38:21;74246.47;;;-145.80;46.13
6615;BME280;3343;42.896;23.912;2023-03-14T00:40:49;74292.59;;;-145.80;47.65
6615;BME280;3343;42.896;23.912;2023-03-14T00:43:16;74268.53;;;-145.80;47.92
6615;BME280;3343;42.896;23.912;2023-03-14T00:45:43;74234.44;;;-145.80;46.66
6615;BME280;3343;42.896;23.912;2023-03-14T00:48:10;74196.31;;;-145.80;46.18
6615;BME280;3343;42.896;23.912;2023-03-14T00:50:37;74172.22;;;-145.80;45.58
6615;BME280;3343;42.896;23.912;2023-03-14T00:53:04;74218.38;;;-145.80;46.08
6615;BME280;3343;42.896;23.912;2023-03-14T00:55:36;74216.38;;;-145.80;46.45
6615;BME280;3343;42.896;23.912;2023-03-14T00:58:03;74198.31;;;-145.80;46.12
6615;BME280;3343;42.896;23.912;2023-03-14T01:00:31;74236.44;;;-145.80;47.18
6615;BME280;3343;42.896;23.912;2023-03-14T01:02:58;74248.47;;;-145.80;46.85
6615;BME280;3343;42.896;23.912;2023-03-14T01:05:25;74284.56;;;-145.80;47.72
6615;BME280;3343;42.896;23.912;2023-03-14T01:07:52;74302.63;;;-145.80;46.69
6615;BME280;3343;42.896;23.912;2023-03-14T01:10:19;74260.50;;;-145.80;46.30
6615;BME280;3343;42.896;23.912;2023-03-14T01:12:47;74250.47;;;-145.80;45.59
6615;BME280;3343;42.896;23.912;2023-03-14T01:15:14;74200.31;;;-145.80;44.54
6615;BME280;3343;42.896;23.912;2023-03-14T01:17:41;74172.22;;;-145.80;43.69
6615;BME280;3343;42.896;23.912;2023-03-14T01:20:11;74156.19;;;-145.80;43.50
6615;BME280;3343;42.896;23.912;2023-03-14T01:22:39;74168.22;;;-145.80;43.72
6615;BME280;3343;42.896;23.912;2023-03-14T01:25:07;74160.19;;;-145.80;43.92
6615;BME280;3343;42.896;23.912;2023-03-14T01:27:34;74190.28;;;-145.80;44.79
6615;BME280;3343;42.896;23.912;2023-03-14T01:30:03;74178.25;;;-145.80;45.08
6615;BME280;3343;42.896;23.912;2023-03-14T01:32:30;74164.22;;;-145.80;44.36
6615;BME280;3343;42.896;23.912;2023-03-14T01:34:57;74142.13;;;-145.80;44.20
6615;BME280;3343;42.896;23.912;2023-03-14T01:37:24;74170.22;;;-145.80;44.49
6615;BME280;3343;42.896;23.912;2023-03-14T01:39:51;74212.34;;;-145.80;45.45
6615;BME280;3343;42.896;23.912;2023-03-14T01:42:17;74216.38;;;-145.80;46.04
6615;BME280;3343;42.896;23.912;2023-03-14T01:44:49;74210.34;;;-145.80;46.39
6615;BME280;3343;42.896;23.912;2023-03-14T01:47:17;74254.47;;;-145.80;47.89
6615;BME280;3343;42.896;23.912;2023-03-14T01:49:46;74224.38;;;-145.80;46.91
6615;BME280;3343;42.896;23.912;2023-03-14T01:52:18;74204.34;;;-145.80;46.77
6615;BME280;3343;42.896;23.912;2023-03-14T01:54:48;74208.34;;;-145.80;48.13
6615;BME280;3343;42.896;23.912;2023-03-14T01:57:20;74180.25;;;-145.80;47.07
6615;BME280;3343;42.896;23.912;2023-03-14T01:59:52;74214.38;;;-145.80;46.74
6615;BME280;3343;42.896;23.912;2023-03-14T02:02:23;74258.50;;;-145.80;47.37
6615;BME280;3343;42.896;23.912;2023-03-14T02:04:52;74284.56;;;-145.80;48.77
6615;BME280;3343;42.896;23.912;2023-03-14T02:07:23;74216.38;;;-145.80;47.68
6615;BME280;3343;42.896;23.912;2023-03-14T02:09:52;74196.31;;;-145.80;46.73
6615;BME280;3343;42.896;23.912;2023-03-14T02:12:20;74196.31;;;-145.80;46.29
6615;BME280;3343;42.896;23.912;2023-03-14T02:14:48;74152.16;;;-145.80;45.52
6615;BME280;3343;42.896;23.912;2023-03-14T02:17:16;74126.09;;;-145.80;45.00
6615;BME280;3343;42.896;23.912;2023-03-14T02:19:55;74128.09;;;-145.80;44.57
6615;BME280;3343;42.896;23.912;2023-03-14T02:22:25;74164.22;;;-145.80;44.94
6615;BME280;3343;42.896;23.912;2023-03-14T02:25:03;74174.25;;;-145.80;44.82
6615;BME280;3343;42.896;23.912;2023-03-14T02:27:34;74262.50;;;-145.80;47.02
6615;BME280;3343;42.896;23.912;2023-03-14T02:30:04;74198.31;;;-145.80;45.83
6615;BME280;3343;42.896;23.912;2023-03-14T02:32:33;74172.22;;;-145.80;45.42
6615;BME280;3343;42.896;23.912;2023-03-14T02:35:05;74156.19;;;-145.80;44.66
6615;BME280;3343;42.896;23.912;2023-03-14T02:37:37;74216.38;;;-145.80;46.52
6615;BME280;3343;42.896;23.912;2023-03-14T02:40:06;74260.50;;;-145.80;47.09
6615;BME280;3343;42.896;23.912;2023-03-14T02:42:34;74314.66;;;-145.80;47.43
6615;BME280;3343;42.896;23.912;2023-03-14T02:45:38;74260.50;;;-145.80;46.97
6615;BME280;3343;42.896;23.912;2023-03-14T02:48:07;74236.44;;;-145.80;46.86
6615;BME280;3343;42.896;23.912;2023-03-14T02:50:35;74208.34;;;-145.80;46.44
6615;BME280;3343;42.896;23.912;2023-03-14T02:53:02;74182.25;;;-145.80;45.54
6615;BME280;3343;42.896;23.912;2023-03-14T02:55:29;74172.22;;;-145.80;45.36
6615;BME280;3343;42.896;23.912;2023-03-14T02:57:57;74160.19;;;-145.80;45.36
6615;BME280;3343;42.896;23.912;2023-03-14T03:00:25;74168.22;;;-145.80;45.27
6615;BME280;3343;42.896;23.912;2023-03-14T03:02:51;74196.31;;;-145.80;45.34
6615;BME280;3343;42.896;23.912;2023-03-14T03:05:18;74172.22;;;-145.80;44.84
6615;BME280;3343;42.896;23.912;2023-03-14T03:07:45;74202.31;;;-145.80;45.42
6615;BME280;3343;42.896;23.912;2023-03-14T03:10:12;74228.41;;;-145.80;46.20
6615;BME280;3343;42.896;23.912;2023-03-14T03:12:39;74264.53;;;-145.80;47.29
6615;BME280;3343;42.896;23.912;2023-03-14T03:15:08;74174.25;;;-145.80;46.20
6615;BME280;3343;42.896;23.912;2023-03-14T03:17:35;74194.31;;;-145.80;45.06
6615;BME280;3343;42.896;23.912;2023-03-14T03:20:02;74172.22;;;-145.80;45.13
6615;BME280;3343;42.896;23.912;2023-03-14T03:22:30;74178.25;;;-145.80;45.23
6615;BME280;3343;42.896;23.912;2023-03-14T03:24:57;74182.25;;;-145.80;44.49
6615;BME280;3343;42.896;23.912;2023-03-14T03:27:24;74148.16;;;-145.80;44.03
6615;BME280;3343;42.896;23.912;2023-03-14T03:29:50;74168.22;;;-145.80;43.69
6615;BME280;3343;42.896;23.912;2023-03-14T03:32:19;74172.22;;;-145.80;44.51
6615;BME280;3343;42.896;23.912;2023-03-14T03:34:45;74208.34;;;-145.80;45.03
6615;BME280;3343;42.896;23.912;2023-03-14T03:37:12;74208.34;;;-145.80;45.08
6615;BME280;3343;42.896;23.912;2023-03-14T03:39:39;74216.38;;;-145.80;44.97
6615;BME280;3343;42.896;23.912;2023-03-14T03:42:06;74222.38;;;-145.80;45.07
6615;BME280;3343;42.896;23.912;2023-03-14T03:44:33;74222.38;;;-145.80;45.49
6615;BME280;3343;42.896;23.912;2023-03-14T03:47:00;74194.31;;;-145.80;44.72
6615;BME280;3343;42.896;23.912;2023-03-14T03:49:30;74238.44;;;-145.80;45.79
6615;BME280;3343;42.896;23.912;2023-03-14T03:51:57;74260.50;;;-145.80;46.25
6615;BME280;3343;42.896;23.912;2023-03-14T03:54:24;74228.41;;;-145.80;46.07
6615;BME280;3343;42.896;23.912;2023-03-14T03:56:51;74252.47;;;-145.80;46.38
6615;BME280;3343;42.896;23.912;2023-03-14T03:59:18;74270.53;;;-145.80;46.65
6615;BME280;3343;42.896;23.912;2023-03-14T04:01:45;74286.59;;;-145.80;47.53
6615;BME280;3343;42.896;23.912;2023-03-14T04:04:12;74292.59;;;-145.80;47.84
6615;BME280;3343;42.896;23.912;2023-03-14T04:06:40;74282.56;;;-145.80;48.19
6615;BME280;3343;42.896;23.912;2023-03-14T04:09:14;74352.78;;;-145.80;49.52
6615;BME280;3343;42.896;23.912;2023-03-14T04:11:41;74378.88;;;-145.80;49.87
6615;BME280;3343;42.896;23.912;2023-03-14T04:14:08;74286.59;;;-145.80;47.81
6615;BME280;3343;42.896;23.912;2023-03-14T04:16:35;74262.50;;;-145.80;47.07
6615;BME280;3343;42.896;23.912;2023-03-14T04:19:02;74228.41;;;-145.80;47.00
6615;BME280;3343;42.896;23.912;2023-03-14T04:21:29;74212.34;;;-145.80;46.25
6615;BME280;3343;42.896;23.912;2023-03-14T04:23:57;74168.22;;;-145.80;45.37
6615;BME280;3343;42.896;23.912;2023-03-14T04:26:24;74160.19;;;-145.80;44.91
6615;BME280;3343;42.896;23.912;2023-03-14T04:28:51;74154.19;;;-145.80;44.57
6615;BME280;3343;42.896;23.912;2023-03-14T04:31:20;74222.38;;;-145.80;45.51
6615;BME280;3343;42.896;23.912;2023-03-14T04:33:47;74270.53;;;-145.80;46.54
6615;BME280;3343;42.896;23.912;2023-03-14T04:36:14;74248.47;;;-145.80;46.16
6615;BME280;3343;42.896;23.912;2023-03-14T04:38:41;74220.38;;;-145.80;45.75
6615;BME280;3343;42.896;23.912;2023-03-14T04:41:10;74164.22;;;-145.80;45.03
6615;BME280;3343;42.896;23.912;2023-03-14T04:43:37;74192.28;;;-145.80;44.91
6615;BME280;3343;42.896;23.912;2023-03-14T04:46:04;74190.28;;;-145.80;45.15
6615;BME280;3343;42.896;23.912;2023-03-14T04:48:31;74234.44;;;-145.80;46.27
6615;BME280;3343;42.896;23.912;2023-03-14T04:50:58;74216.38;;;-145.80;45.89
6615;BME280;3343;42.896;23.912;2023-03-14T04:53:25;74184.28;;;-145.80;45.25
6615;BME280;3343;42.896;23.912;2023-03-14T04:55:54;74158.19;;;-145.80;44.93
6615;BME280;3343;42.896;23.912;2023-03-14T04:58:23;74156.19;;;-145.80;44.55
6615;BME280;3343;42.896;23.912;2023-03-14T05:00:51;74148.16;;;-145.80;44.29
6615;BME280;3343;42.896;23.912;2023-03-14T05:03:18;74138.13;;;-145.80;44.22
6615;BME280;3343;42.896;23.912;2023-03-14T05:05:45;74124.09;;;-145.80;44.07
6615;BME280;3343;42.896;23.912;2023-03-14T05:08:12;74091.97;;;-145.80;43.54
6615;BME280;3343;42.896;23.912;2023-03-14T05:10:39;74077.94;;;-145.80;43.50
6615;BME280;3343;42.896;23.912;2023-03-14T05:13:06;74063.91;;;-145.80;42.67
6615;BME280;3343;42.896;23.912;2023-03-14T05:15:34;74057.88;;;-145.80;43.51
6615;BME280;3343;42.896;23.912;2023-03-14T05:18:01;74061.91;;;-145.80;43.01
6615;BME280;3343;42.896;23.912;2023-03-14T05:20:28;73977.63;;;-145.80;41.50
6615;BME280;3343;42.896;23.912;2023-03-14T05:22:56;73969.59;;;-145.80;41.39
6615;BME280;3343;42.896;23.912;2023-03-14T05:25:23;73993.69;;;-145.80;42.46
6615;BME280;3343;42.896;23.912;2023-03-14T05:27:50;73897.41;;;-145.80;41.68
6615;BME280;3343;42.896;23.912;2023-03-14T05:30:19;73785.06;;;-145.80;40.30
6615;BME280;3343;42.896;23.912;2023-03-14T05:32:48;73662.69;;;-145.80;38.90
6615;BME280;3343;42.896;23.912;2023-03-14T05:35:15;73626.59;;;-145.80;37.34
6615;BME280;3343;42.896;23.912;2023-03-14T05:37:42;73540.34;;;-145.80;36.73
6615;BME280;3343;42.896;23.912;2023-03-14T05:40:10;73486.19;;;-145.80;36.29
6615;BME280;3343;42.896;23.912;2023-03-14T05:42:37;73413.97;;;-145.80;35.07
6615;BME280;3343;42.896;23.912;2023-03-14T05:45:04;73359.81;;;-145.80;34.23
6615;BME280;3343;42.896;23.912;2023-03-14T05:47:31;73347.78;;;-145.80;33.94
6615;BME280;3343;42.896;23.912;2023-03-14T05:50:00;73283.59;;;-145.80;33.93
6615;BME280;3343;42.896;23.912;2023-03-14T05:52:26;73253.53;;;-145.80;33.12
6615;BME280;3343;42.896;23.912;2023-03-14T05:54:53;73209.41;;;-145.80;32.37
6615;BME280;3343;42.896;23.912;2023-03-14T05:57:20;73209.41;;;-145.80;32.61
6615;BME280;3343;42.896;23.912;2023-03-14T05:59:47;73207.38;;;-145.80;32.29
6615;BME280;3343;42.896;23.912;2023-03-14T06:02:13;73201.38;;;-145.80;32.59
6615;BME280;3343;42.896;23.912;2023-03-14T06:04:40;73171.28;;;-145.80;32.44
6615;BME280;3343;42.896;23.912;2023-03-14T06:07:08;73123.16;;;-145.80;31.42
6615;BME280;3343;42.896;23.912;2023-03-14T06:09:35;73129.16;;;-145.80;32.07
6615;BME280;3343;42.896;23.912;2023-03-14T06:12:03;73060.97;;;-145.80;31.91
6615;BME280;3343;42.896;23.912;2023-03-14T06:14:30;73048.94;;;-145.80;30.29
6615;BME280;3343;42.896;23.912;2023-03-14T06:16:57;73014.84;;;-145.80;29.16
6615;BME280;3343;42.896;23.912;2023-03-14T06:19:24;73095.06;;;-145.80;30.07
6615;BME280;3343;42.896;23.912;2023-03-14T06:21:51;73185.31;;;-145.80;30.89
6615;BME280;3343;42.896;23.912;2023-03-14T06:24:19;73203.38;;;-145.80;30.88
6615;BME280;3343;42.896;23.912;2023-03-14T06:26:46;73195.34;;;-145.80;29.50
6615;BME280;3343;42.896;23.912;2023-03-14T06:29:13;73205.38;;;-145.80;30.54
6615;BME280;3343;42.896;23.912;2023-03-14T06:31:40;73193.34;;;-145.80;30.56
6615;BME280;3343;42.896;23.912;2023-03-14T06:34:06;73215.41;;;-145.80;30.86
6615;BME280;3343;42.896;23.912;2023-03-14T06:36:33;73119.13;;;-145.80;30.66
6615;BME280;3343;42.896;23.912;2023-03-14T06:39:00;73145.22;;;-145.80;30.81
6615;BME280;3343;42.896;23.912;2023-03-14T06:41:29;73071.00;;;-145.80;30.22
6615;BME280;3343;42.896;23.912;2023-03-14T06:43:56;73032.91;;;-145.80;28.98
6615;BME280;3343;42.896;23.912;2023-03-14T06:46:22;72968.72;;;-145.80;28.83
6615;BME280;3343;42.896;23.912;2023-03-14T06:48:49;72946.66;;;-145.80;28.54
6615;BME280;3343;42.896;23.912;2023-03-14T06:51:16;72900.53;;;-145.80;28.24
6615;BME280;3343;42.896;23.912;2023-03-14T06:53:43;72868.44;;;-145.80;28.11
6615;BME280;3343;42.896;23.912;2023-03-14T06:56:10;72848.41;;;-145.80;26.92
6615;BME280;3343;42.896;23.912;2023-03-14T06:58:38;72804.28;;;-145.80;27.66
6615;BME280;3343;42.896;23.912;2023-03-14T07:01:06;72770.19;;;-145.80;26.89
6615;BME280;3343;42.896;23.912;2023-03-14T07:03:42;72744.13;;;-145.80;26.43
6615;BME280;3343;42.896;23.912;2023-03-14T07:06:09;72746.13;;;-145.80;26.18
6615;BME280;3343;42.896;23.912;2023-03-14T07:08:36;72704.00;;;-145.80;25.83
6615;BME280;3343;42.896;23.912;2023-03-14T07:11:03;72671.94;;;-145.80;25.57
6615;BME280;3343;42.896;23.912;2023-03-14T07:13:30;72591.72;;;-145.80;25.09
6615;BME280;3343;42.896;23.912;2023-03-14T07:15:58;72483.44;;;-145.80;24.96
6615;BME280;3343;42.896;23.912;2023-03-14T07:18:25;72453.34;;;-145.80;24.92
6615;BME280;3343;42.896;23.912;2023-03-14T07:20:52;72425.28;;;-145.80;25.28
6615;BME280;3343;42.896;23.912;2023-03-14T07:23:19;72443.31;;;-145.80;24.26
6615;BME280;3343;42.896;23.912;2023-03-14T07:25:46;72503.47;;;-145.80;24.15
6615;BME280;3343;42.896;23.912;2023-03-14T07:28:13;72559.63;;;-145.80;23.91
6615;BME280;3343;42.896;23.912;2023-03-14T07:30:40;72555.63;;;-145.80;24.14
6615;BME280;3343;42.896;23.912;2023-03-14T07:33:08;72491.44;;;-145.80;22.76
6615;BME280;3343;42.896;23.912;2023-03-14T07:35:35;72511.50;;;-145.80;23.21
6615;BME280;3343;42.896;23.912;2023-03-14T07:38:01;72493.47;;;-145.80;22.63
6615;BME280;3343;42.896;23.912;2023-03-14T07:40:28;72509.50;;;-145.80;23.15
6615;BME280;3343;42.896;23.912;2023-03-14T07:42:55;72469.41;;;-145.80;22.76
6615;BME280;3343;42.896;23.912;2023-03-14T07:45:23;72459.38;;;-145.80;22.86
6615;BME280;3343;42.896;23.912;2023-03-14T07:47:49;72409.25;;;-145.80;23.52
6615;BME280;3343;42.896;23.912;2023-03-14T07:50:18;72435.31;;;-145.80;22.80
6615;BME280;3343;42.896;23.912;2023-03-14T07:52:45;72427.28;;;-145.80;23.14
6615;BME280;3343;42.896;23.912;2023-03-14T07:55:12;72373.16;;;-145.80;22.80
6615;BME280;3343;42.896;23.912;2023-03-14T07:57:39;72355.09;;;-145.80;22.69
6615;BME280;3343;42.896;23.912;2023-03-14T08:00:07;72304.97;;;-145.80;22.05
6615;BME280;3343;42.896;23.912;2023-03-14T08:02:34;72300.97;;;-145.80;22.08
6615;BME280;3343;42.896;23.912;2023-03-14T08:05:01;72278.91;;;-145.80;22.18
6615;BME280;3343;42.896;23.912;2023-03-14T08:07:30;72276.91;;;-145.80;22.51
6615;BME280;3343;42.896;23.912;2023-03-14T08:09:56;72351.09;;;-145.80;22.67
6615;BME280;3343;42.896;23.912;2023-03-14T08:12:23;72349.09;;;-145.80;23.05
6615;BME280;3343;42.896;23.912;2023-03-14T08:14:50;72319.00;;;-145.80;23.22
6615;BME280;3343;42.896;23.912;2023-03-14T08:17:17;72325.03;;;-145.80;22.34
6615;BME280;3343;42.896;23.912;2023-03-14T08:19:44;72266.88;;;-145.80;23.46
6615;BME280;3343;42.896;23.912;2023-03-14T08:22:10;72222.75;;;-145.80;23.35
6615;BME280;3343;42.896;23.912;2023-03-14T08:24:39;72168.63;;;-145.80;22.03
6615;BME280;3343;42.896;23.912;2023-03-14T08:27:06;72206.72;;;-145.80;21.39
6615;BME280;3343;42.896;23.912;2023-03-14T08:29:33;72144.56;;;-145.80;21.58
6615;BME280;3343;42.896;23.912;2023-03-14T08:32:00;72134.53;;;-145.80;22.08
6615;BME280;3343;42.896;23.912;2023-03-14T08:34:27;72104.47;;;-145.80;22.07
6615;BME280;3343;42.896;23.912;2023-03-14T08:36:54;72080.41;;;-145.80;22.11
6615;BME280;3343;42.896;23.912;2023-03-14T08:39:22;72032.28;;;-145.80;23.26
6615;BME280;3343;42.896;23.912;2023-03-14T08:41:50;72016.25;;;-145.80;23.15
6615;BME280;3343;42.896;23.912;2023-03-14T08:44:17;72026.28;;;-145.80;22.24
6615;BME280;3343;42.896;23.912;2023-03-14T08:46:44;71998.22;;;-145.80;23.34
6615;BME280;3343;42.896;23.912;2023-03-14T08:49:11;71966.13;;;-145.80;22.47
6615;BME280;3343;42.896;23.912;2023-03-14T08:51:39;71986.19;;;-145.80;23.05
6615;BME280;3343;42.896;23.912;2023-03-14T08:54:09;71980.16;;;-145.80;23.18
6615;BME280;3343;42.896;23.912;2023-03-14T08:56:36;72040.31;;;-145.80;23.49
6615;BME280;3343;42.896;23.912;2023-03-14T08:59:05;72006.22;;;-145.80;23.01
6615;BME280;3343;42.896;23.912;2023-03-14T09:01:33;72024.28;;;-145.80;23.41
6615;BME280;3343;42.896;23.912;2023-03-14T09:04:00;72044.31;;;-145.80;23.43
6615;BME280;3343;42.896;23.912;2023-03-14T09:06:27;72030.28;;;-145.80;22.96
6615;BME280;3343;42.896;23.912;2023-03-14T09:08:54;72058.34;;;-145.80;23.02
6615;BME280;3343;42.896;23.912;2023-03-14T09:11:21;72078.41;;;-145.80;23.21
6615;BME280;3343;42.896;23.912;2023-03-14T09:13:47;72040.31;;;-145.80;22.68
6615;BME280;3343;42.896;23.912;2023-03-14T09:16:16;71998.22;;;-145.80;22.54
6615;BME280;3343;42.896;23.912;2023-03-14T09:18:43;72054.34;;;-145.80;22.14
6615;BME280;3343;42.896;23.912;2023-03-14T09:21:10;72006.22;;;-145.80;22.39
6615;BME280;3343;42.896;23.912;2023-03-14T09:23:37;71978.16;;;-145.80;22.79
6615;BME280;3343;42.896;23.912;2023-03-14T09:26:04;71954.09;;;-145.80;22.52
6615;BME280;3343;42.896;23.912;2023-03-14T09:28:31;71926.03;;;-145.80;22.25
6615;BME280;3343;42.896;23.912;2023-03-14T09:30:57;71914.00;;;-145.80;22.38
6615;BME280;3343;42.896;23.912;2023-03-14T09:33:26;71905.97;;;-145.80;21.16
6615;BME280;3343;42.896;23.912;2023-03-14T09:35:53;71905.97;;;-145.80;22.04
6615;BME280;3343;42.896;23.912;2023-03-14T09:38:19;71938.06;;;-145.80;22.04
6615;BME280;3343;42.896;23.912;2023-03-14T09:40:47;71918.00;;;-145.80;22.38
6615;BME280;3343;42.896;23.912;2023-03-14T09:43:15;71910.00;;;-145.80;22.08
6615;BME280;3343;42.896;23.912;2023-03-14T09:45:43;71948.09;;;-145.80;22.56
6615;BME280;3343;42.896;23.912;2023-03-14T09:48:16;72006.22;;;-145.80;21.73
6615;BME280;3343;42.896;23.912;2023-03-14T09:50:47;71994.19;;;-145.80;22.30
6615;BME280;3343;42.896;23.912;2023-03-14T09:53:17;71926.03;;;-145.80;22.42
6615;BME280;3343;42.896;23.912;2023-03-14T09:55:45;71956.09;;;-145.80;21.17
6615;BME280;3343;42.896;23.912;2023-03-14T09:58:17;71936.06;;;-145.80;21.69
6615;BME280;3343;42.896;23.912;2023-03-14T10:00:45;71912.00;;;-145.80;22.24
6615;BME280;3343;42.896;23.912;2023-03-14T10:03:25;71857.88;;;-145.80;21.54
6615;BME280;3343;42.896;23.912;2023-03-14T10:05:55;71875.91;;;-145.80;21.32
6615;BME280;3343;42.896;23.912;2023-03-14T10:08:22;71964.13;;;-145.80;22.03
6615;BME280;3343;42.896;23.912;2023-03-14T10:10:49;71908.00;;;-145.80;22.33
6615;BME280;3343;42.896;23.912;2023-03-14T10:13:18;71873.91;;;-145.80;22.29
6615;BME280;3343;42.896;23.912;2023-03-14T10:15:50;71849.84;;;-145.80;22.25
6615;BME280;3343;42.896;23.912;2023-03-14T10:18:18;71829.78;;;-145.80;22.24
6615;BME280;3343;42.896;23.912;2023-03-14T10:20:46;71817.78;;;-145.80;21.87
6615;BME280;3343;42.896;23.912;2023-03-14T10:23:23;71799.72;;;-145.80;21.04
6615;BME280;3343;42.896;23.912;2023-03-14T10:26:07;71763.63;;;-145.80;21.03
6615;BME280;3343;42.896;23.912;2023-03-14T10:28:39;71801.72;;;-145.80;21.16
6615;BME280;3343;42.896;23.912;2023-03-14T10:31:06;71779.69;;;-145.80;21.94
6615;BME280;3343;42.896;23.912;2023-03-14T10:33:35;71797.72;;;-145.80;20.99
6615;BME280;3343;42.896;23.912;2023-03-14T10:36:03;71765.66;;;-145.80;20.41
6615;BME280;3343;42.896;23.912;2023-03-14T10:38:34;71759.63;;;-145.80;21.20
6615;BME280;3343;42.896;23.912;2023-03-14T10:41:04;71729.56;;;-145.80;21.24
6615;BME280;3343;42.896;23.912;2023-03-14T10:43:41;71679.44;;;-145.80;20.77
6615;BME280;3343;42.896;23.912;2023-03-14T10:46:09;71673.44;;;-145.80;21.22
6615;BME280;3343;42.896;23.912;2023-03-14T10:48:39;71669.41;;;-145.80;20.67
6615;BME280;3343;42.896;23.912;2023-03-14T10:51:09;71687.47;;;-145.80;20.35
6615;BME280;3343;42.896;23.912;2023-03-14T10:53:43;71663.41;;;-145.80;21.25
6615;BME280;3343;42.896;23.912;2023-03-14T10:56:14;71697.47;;;-145.80;21.32
6615;BME280;3343;42.896;23.912;2023-03-14T10:58:42;71723.53;;;-145.80;21.35
6615;BME280;3343;42.896;23.912;2023-03-14T11:01:23;71693.47;;;-145.80;21.21
6615;BME280;3343;42.896;23.912;2023-03-14T11:03:56;71657.38;;;-145.80;21.61
6615;BME280;3343;42.896;23.912;2023-03-14T11:06:31;71607.28;;;-145.80;21.46
6615;BME280;3343;42.896;23.912;2023-03-14T11:09:07;71593.25;;;-145.80;20.76
6615;BME280;3343;42.896;23.912;2023-03-14T11:11:39;71569.19;;;-145.80;21.51
6615;BME280;3343;42.896;23.912;2023-03-14T11:14:20;71549.13;;;-145.80;20.83
6615;BME280;3343;42.896;23.912;2023-03-14T11:16:54;71547.13;;;-145.80;20.97
6615;BME280;3343;42.896;23.912;2023-03-14T11:19:41;71509.03;;;-145.80;21.20
6615;BME280;3343;42.896;23.912;2023-03-14T11:22:18;71497.00;;;-145.80;20.79
6615;BME280;3343;42.896;23.912;2023-03-14T11:24:56;71493.00;;;-145.80;20.29
6615;BME280;3343;42.896;23.912;2023-03-14T11:27:34;71476.97;;;-145.80;21.44
6615;BME280;3343;42.896;23.912;2023-03-14T11:30:16;71521.06;;;-145.80;20.93
6615;BME280;3343;42.896;23.912;2023-03-14T11:32:45;71480.97;;;-145.80;20.81
6615;BME280;3343;42.896;23.912;2023-03-14T11:35:19;71476.97;;;-145.80;20.53
6615;BME280;3343;42.896;23.912;2023-03-14T11:37:54;71505.03;;;-145.80;20.30
6615;BME280;3343;42.896;23.912;2023-03-14T11:40:26;71581.22;;;-145.80;20.12
6615;BME280;3343;42.896;23.912;2023-03-14T11:43:00;71581.22;;;-145.80;21.01
6615;BME280;3343;42.896;23.912;2023-03-14T11:45:32;71609.28;;;-145.80;20.44
6615;BME280;3343;42.896;23.912;2023-03-14T11:48:27;71625.31;;;-145.80;20.97
6615;BME280;3343;42.896;23.912;2023-03-14T11:50:57;71617.28;;;-145.80;21.68
6615;BME280;3343;42.896;23.912;2023-03-14T11:53:37;71567.19;;;-145.80;21.48
6615;BME280;3343;42.896;23.912;2023-03-14T11:56:11;71533.09;;;-145.80;21.25
6615;BME280;3343;42.896;23.912;2023-03-14T11:58:49;71493.00;;;-145.80;20.87
6615;BME280;3343;42.896;23.912;2023-03-14T12:01:20;71456.91;;;-145.80;20.55
6615;BME280;3343;42.896;23.912;2023-03-14T12:03:54;71432.88;;;-145.80;20.55
6615;BME280;3343;42.896;23.912;2023-03-14T12:06:28;71424.84;;;-145.80;20.84
6615;BME280;3343;42.896;23.912;2023-03-14T12:09:00;71434.88;;;-145.80;20.69
6615;BME280;3343;42.896;23.912;2023-03-14T12:11:39;71462.94;;;-145.80;21.27
6615;BME280;3343;42.896;23.912;2023-03-14T12:14:20;71478.97;;;-145.80;20.98
6615;BME280;3343;42.896;23.912;2023-03-14T12:16:47;71501.03;;;-145.80;20.29
6615;BME280;3343;42.896;23.912;2023-03-14T12:19:33;71495.00;;;-145.80;20.72
6615;BME280;3343;42.896;23.912;2023-03-14T12:22:21;71482.97;;;-145.80;20.75
6615;BME280;3343;42.896;23.912;2023-03-14T12:24:53;71438.88;;;-145.80;20.75
6615;BME280;3343;42.896;23.912;2023-03-14T12:27:45;71452.91;;;-145.80;21.00
6615;BME280;3343;42.896;23.912;2023-03-14T12:30:27;71412.81;;;-145.80;20.67
6615;BME280;3343;42.896;23.912;2023-03-14T12:33:29;71362.72;;;-145.80;21.18
6615;BME280;3343;42.896;23.912;2023-03-14T12:36:00;71348.69;;;-145.80;20.93
6615;BME280;3343;42.896;23.912;2023-03-14T12:38:37;71489.00;;;-145.80;20.19
6615;BME280;3343;42.896;23.912;2023-03-14T12:41:15;71485.00;;;-145.80;21.78
6615;BME280;3343;42.896;23.912;2023-03-14T12:43:44;71410.81;;;-145.80;20.95
6615;BME280;3343;42.896;23.912;2023-03-14T12:46:22;71414.81;;;-145.80;20.70
6615;BME280;3343;42.896;23.912;2023-03-14T12:48:54;71418.84;;;-145.80;20.81
6615;BME280;3343;42.896;23.912;2023-03-14T12:51:29;71404.81;;;-145.80;19.95
6615;BME280;3343;42.896;23.912;2023-03-14T12:54:10;71394.78;;;-145.80;21.24
6615;BME280;3343;42.896;23.912;2023-03-14T12:56:52;71380.75;;;-145.80;20.84
6615;BME280;3343;42.896;23.912;2023-03-14T12:59:31;71360.69;;;-145.80;20.48
6615;BME280;3343;42.896;23.912;2023-03-14T13:02:23;71412.81;;;-145.80;20.62